sensor_id;sensor_type;location;lat;lon;timestamp;P1;durP1;ratioP1;P2;durP2;ratioP2
43184;SDS011;28803;52.308;19.096;2022-10-17T00:02:25;19.40;;;11.15;;
43184;SDS011;28803;52.308;19.096;2022-10-17T00:04:52;16.00;;;9.60;;
43184;SDS011;28803;52.308;19.096;2022-10-17T00:07:24;18.55;;;10.95;;
43184;SDS011;28803;52.308;19.096;2022-10-17T00:09:52;19.10;;;11.30;;
43184;SDS011;28803;52.308;19.096;2022-10-17T00:12:18;17.65;;;11.00;;
43184;SDS011;28803;52.308;19.096;2022-10-17T00:14:46;21.77;;;12.05;;
43184;SDS011;28803;52.308;19.096;2022-10-17T00:17:13;22.33;;;12.02;;
43184;SDS011;28803;52.308;19.096;2022-10-17T00:19:41;18.48;;;10.82;;
43184;SDS011;28803;52.308;19.096;2022-10-17T00:22:08;19.45;;;11.45;;
43184;SDS011;28803;52.308;19.096;2022-10-17T00:24:35;19.83;;;12.07;;
43184;SDS011;28803;52.308;19.096;2022-10-17T00:27:02;20.88;;;12.82;;
43184;SDS011;28803;52.308;19.096;2022-10-17T00:29:29;17.50;;;10.65;;
43184;SDS011;28803;52.308;19.096;2022-10-17T00:31:56;16.60;;;9.70;;
43184;SDS011;28803;52.308;19.096;2022-10-17T00:34:24;19.73;;;10.35;;
43184;SDS011;28803;52.308;19.096;2022-10-17T00:36:51;15.43;;;9.70;;
43184;SDS011;28803;52.308;19.096;2022-10-17T00:39:18;15.48;;;9.18;;
43184;SDS011;28803;52.308;19.096;2022-10-17T00:41:46;21.73;;;12.55;;
43184;SDS011;28803;52.308;19.096;2022-10-17T00:46:59;23.38;;;13.48;;
43184;SDS011;28803;52.308;19.096;2022-10-17T00:49:30;19.90;;;12.13;;
43184;SDS011;28803;52.308;19.096;2022-10-17T00:52:22;25.23;;;13.27;;
43184;SDS011;28803;52.308;19.096;2022-10-17T00:54:53;24.05;;;12.75;;
43184;SDS011;28803;52.308;19.096;2022-10-17T00:57:24;24.48;;;12.82;;
43184;SDS011;28803;52.308;19.096;2022-10-17T00:59:53;19.42;;;11.18;;
43184;SDS011;28803;52.308;19.096;2022-10-17T01:02:23;23.92;;;13.95;;
43184;SDS011;28803;52.308;19.096;2022-10-17T01:04:51;18.92;;;12.63;;
43184;SDS011;28803;52.308;19.096;2022-10-17T01:07:20;24.40;;;12.80;;
43184;SDS011;28803;52.308;19.096;2022-10-17T01:09:48;21.48;;;13.15;;
43184;SDS011;28803;52.308;19.096;2022-10-17T01:12:19;19.90;;;11.70;;
43184;SDS011;28803;52.308;19.096;2022-10-17T01:14:59;20.23;;;12.23;;
43184;SDS011;28803;52.308;19.096;2022-10-17T01:17:52;19.27;;;11.85;;
43184;SDS011;28803;52.308;19.096;2022-10-17T01:23:42;26.60;;;13.30;;
43184;SDS011;28803;52.308;19.096;2022-10-17T01:37:18;27.98;;;15.05;;
43184;SDS011;28803;52.308;19.096;2022-10-17T01:44:54;27.55;;;15.15;;
43184;SDS011;28803;52.308;19.096;2022-10-17T01:47:28;26.20;;;14.80;;
43184;SDS011;28803;52.308;19.096;2022-10-17T01:50:00;25.02;;;14.18;;
43184;SDS011;28803;52.308;19.096;2022-10-17T01:52:34;24.38;;;13.98;;
43184;SDS011;28803;52.308;19.096;2022-10-17T01:55:07;24.95;;;13.35;;
43184;SDS011;28803;52.308;19.096;2022-10-17T01:57:38;21.55;;;12.50;;
43184;SDS011;28803;52.308;19.096;2022-10-17T02:00:10;23.50;;;13.65;;
43184;SDS011;28803;52.308;19.096;2022-10-17T02:02:54;25.33;;;14.13;;
43184;SDS011;28803;52.308;19.096;2022-10-17T02:05:26;26.30;;;13.90;;
43184;SDS011;28803;52.308;19.096;2022-10-17T02:07:57;20.27;;;12.35;;
43184;SDS011;28803;52.308;19.096;2022-10-17T02:22:10;20.50;;;12.68;;
43184;SDS011;28803;52.308;19.096;2022-10-17T02:24:50;19.92;;;12.07;;
43184;SDS011;28803;52.308;19.096;2022-10-17T02:33:19;24.85;;;12.45;;
43184;SDS011;28803;52.308;19.096;2022-10-17T02:35:55;21.92;;;13.15;;
43184;SDS011;28803;52.308;19.096;2022-10-17T02:38:25;27.85;;;13.85;;
43184;SDS011;28803;52.308;19.096;2022-10-17T02:40:54;25.30;;;14.65;;
43184;SDS011;28803;52.308;19.096;2022-10-17T02:43:21;26.88;;;15.57;;
43184;SDS011;28803;52.308;19.096;2022-10-17T02:45:49;28.60;;;16.52;;
43184;SDS011;28803;52.308;19.096;2022-10-17T02:48:23;25.23;;;14.50;;
43184;SDS011;28803;52.308;19.096;2022-10-17T02:51:27;23.42;;;13.48;;
43184;SDS011;28803;52.308;19.096;2022-10-17T02:54:02;28.15;;;15.55;;
43184;SDS011;28803;52.308;19.096;2022-10-17T02:56:32;27.70;;;16.53;;
43184;SDS011;28803;52.308;19.096;2022-10-17T02:59:06;27.02;;;15.63;;
43184;SDS011;28803;52.308;19.096;2022-10-17T03:01:37;24.88;;;14.52;;
43184;SDS011;28803;52.308;19.096;2022-10-17T03:04:06;25.15;;;14.27;;
43184;SDS011;28803;52.308;19.096;2022-10-17T03:06:34;23.83;;;13.38;;
43184;SDS011;28803;52.308;19.096;2022-10-17T03:09:02;27.63;;;14.43;;
43184;SDS011;28803;52.308;19.096;2022-10-17T03:11:30;24.45;;;13.73;;
43184;SDS011;28803;52.308;19.096;2022-10-17T03:13:56;25.52;;;13.50;;
43184;SDS011;28803;52.308;19.096;2022-10-17T03:16:24;19.38;;;13.05;;
43184;SDS011;28803;52.308;19.096;2022-10-17T03:18:50;20.75;;;12.77;;
43184;SDS011;28803;52.308;19.096;2022-10-17T03:21:18;19.40;;;11.35;;
43184;SDS011;28803;52.308;19.096;2022-10-17T03:23:45;21.20;;;12.43;;
43184;SDS011;28803;52.308;19.096;2022-10-17T03:26:12;22.13;;;13.00;;
43184;SDS011;28803;52.308;19.096;2022-10-17T03:28:39;25.67;;;14.18;;
43184;SDS011;28803;52.308;19.096;2022-10-17T03:31:11;25.88;;;14.57;;
43184;SDS011;28803;52.308;19.096;2022-10-17T03:33:40;21.80;;;13.38;;
43184;SDS011;28803;52.308;19.096;2022-10-17T03:36:08;26.30;;;15.18;;
43184;SDS011;28803;52.308;19.096;2022-10-17T03:38:40;28.38;;;16.83;;
43184;SDS011;28803;52.308;19.096;2022-10-17T03:41:08;29.00;;;16.85;;
43184;SDS011;28803;52.308;19.096;2022-10-17T03:43:35;29.73;;;17.05;;
43184;SDS011;28803;52.308;19.096;2022-10-17T03:46:02;29.27;;;16.80;;
43184;SDS011;28803;52.308;19.096;2022-10-17T03:48:29;25.13;;;15.32;;
43184;SDS011;28803;52.308;19.096;2022-10-17T03:51:02;29.13;;;15.90;;
43184;SDS011;28803;52.308;19.096;2022-10-17T03:53:33;26.60;;;15.57;;
43184;SDS011;28803;52.308;19.096;2022-10-17T03:56:10;25.77;;;14.63;;
43184;SDS011;28803;52.308;19.096;2022-10-17T03:58:42;27.00;;;15.13;;
43184;SDS011;28803;52.308;19.096;2022-10-17T04:01:11;26.33;;;15.32;;
43184;SDS011;28803;52.308;19.096;2022-10-17T04:03:40;29.38;;;16.25;;
43184;SDS011;28803;52.308;19.096;2022-10-17T04:06:08;27.88;;;15.55;;
43184;SDS011;28803;52.308;19.096;2022-10-17T04:08:37;29.00;;;15.52;;
43184;SDS011;28803;52.308;19.096;2022-10-17T04:11:06;27.58;;;15.20;;
43184;SDS011;28803;52.308;19.096;2022-10-17T04:13:34;28.80;;;15.48;;
43184;SDS011;28803;52.308;19.096;2022-10-17T04:16:05;21.10;;;13.60;;
43184;SDS011;28803;52.308;19.096;2022-10-17T04:18:34;23.95;;;13.65;;
43184;SDS011;28803;52.308;19.096;2022-10-17T04:21:01;28.40;;;14.40;;
43184;SDS011;28803;52.308;19.096;2022-10-17T04:23:29;27.80;;;14.75;;
43184;SDS011;28803;52.308;19.096;2022-10-17T04:25:57;26.13;;;15.70;;
43184;SDS011;28803;52.308;19.096;2022-10-17T04:28:25;26.20;;;15.75;;
43184;SDS011;28803;52.308;19.096;2022-10-17T04:30:57;32.38;;;16.10;;
43184;SDS011;28803;52.308;19.096;2022-10-17T04:33:35;29.17;;;15.82;;
43184;SDS011;28803;52.308;19.096;2022-10-17T04:36:03;27.35;;;13.75;;
43184;SDS011;28803;52.308;19.096;2022-10-17T04:38:32;31.40;;;17.23;;
43184;SDS011;28803;52.308;19.096;2022-10-17T04:41:00;28.02;;;15.20;;
43184;SDS011;28803;52.308;19.096;2022-10-17T04:43:32;25.48;;;14.20;;
43184;SDS011;28803;52.308;19.096;2022-10-17T04:46:03;22.67;;;13.60;;
43184;SDS011;28803;52.308;19.096;2022-10-17T04:48:35;21.67;;;13.48;;
43184;SDS011;28803;52.308;19.096;2022-10-17T04:51:03;27.35;;;16.80;;
43184;SDS011;28803;52.308;19.096;2022-10-17T04:53:37;25.50;;;15.15;;
43184;SDS011;28803;52.308;19.096;2022-10-17T04:56:15;24.00;;;13.68;;
43184;SDS011;28803;52.308;19.096;2022-10-17T04:58:44;27.58;;;14.68;;
43184;SDS011;28803;52.308;19.096;2022-10-17T05:01:13;23.38;;;13.55;;
43184;SDS011;28803;52.308;19.096;2022-10-17T05:03:42;25.95;;;14.85;;
43184;SDS011;28803;52.308;19.096;2022-10-17T05:06:11;25.50;;;14.05;;
43184;SDS011;28803;52.308;19.096;2022-10-17T05:08:40;21.58;;;13.48;;
43184;SDS011;28803;52.308;19.096;2022-10-17T05:14:04;24.00;;;13.55;;
43184;SDS011;28803;52.308;19.096;2022-10-17T05:16:32;25.45;;;15.10;;
43184;SDS011;28803;52.308;19.096;2022-10-17T05:18:59;27.38;;;14.82;;
43184;SDS011;28803;52.308;19.096;2022-10-17T05:21:28;33.25;;;17.05;;
43184;SDS011;28803;52.308;19.096;2022-10-17T05:23:55;29.50;;;16.83;;
43184;SDS011;28803;52.308;19.096;2022-10-17T05:26:23;29.58;;;15.77;;
43184;SDS011;28803;52.308;19.096;2022-10-17T05:28:50;29.25;;;15.43;;
43184;SDS011;28803;52.308;19.096;2022-10-17T05:31:18;28.48;;;16.88;;
43184;SDS011;28803;52.308;19.096;2022-10-17T05:33:46;27.95;;;14.38;;
43184;SDS011;28803;52.308;19.096;2022-10-17T05:36:13;26.08;;;15.00;;
43184;SDS011;28803;52.308;19.096;2022-10-17T05:38:40;26.63;;;15.07;;
43184;SDS011;28803;52.308;19.096;2022-10-17T05:41:08;31.05;;;17.23;;
43184;SDS011;28803;52.308;19.096;2022-10-17T05:43:35;32.55;;;17.80;;
43184;SDS011;28803;52.308;19.096;2022-10-17T05:46:03;32.50;;;18.45;;
43184;SDS011;28803;52.308;19.096;2022-10-17T05:48:31;34.72;;;18.55;;
43184;SDS011;28803;52.308;19.096;2022-10-17T05:51:07;37.10;;;19.67;;
43184;SDS011;28803;52.308;19.096;2022-10-17T05:53:36;33.28;;;17.25;;
43184;SDS011;28803;52.308;19.096;2022-10-17T05:56:05;32.53;;;17.27;;
43184;SDS011;28803;52.308;19.096;2022-10-17T05:58:33;43.50;;;21.02;;
43184;SDS011;28803;52.308;19.096;2022-10-17T06:01:15;37.45;;;20.38;;
43184;SDS011;28803;52.308;19.096;2022-10-17T06:03:43;38.05;;;20.60;;
43184;SDS011;28803;52.308;19.096;2022-10-17T06:06:11;36.55;;;19.95;;
43184;SDS011;28803;52.308;19.096;2022-10-17T06:08:39;37.70;;;18.58;;
43184;SDS011;28803;52.308;19.096;2022-10-17T06:11:06;39.85;;;22.92;;
43184;SDS011;28803;52.308;19.096;2022-10-17T06:13:36;42.60;;;20.83;;
43184;SDS011;28803;52.308;19.096;2022-10-17T06:16:05;47.35;;;23.58;;
43184;SDS011;28803;52.308;19.096;2022-10-17T06:18:32;47.30;;;23.42;;
43184;SDS011;28803;52.308;19.096;2022-10-17T06:21:03;50.78;;;24.17;;
43184;SDS011;28803;52.308;19.096;2022-10-17T06:23:32;42.13;;;22.77;;
43184;SDS011;28803;52.308;19.096;2022-10-17T06:25:59;44.45;;;23.52;;
43184;SDS011;28803;52.308;19.096;2022-10-17T06:28:27;44.50;;;24.08;;
43184;SDS011;28803;52.308;19.096;2022-10-17T06:30:54;41.45;;;23.55;;
43184;SDS011;28803;52.308;19.096;2022-10-17T06:33:22;41.85;;;23.10;;
43184;SDS011;28803;52.308;19.096;2022-10-17T06:35:50;36.70;;;21.25;;
43184;SDS011;28803;52.308;19.096;2022-10-17T06:38:18;38.92;;;21.13;;
43184;SDS011;28803;52.308;19.096;2022-10-17T06:40:45;29.33;;;18.77;;
43184;SDS011;28803;52.308;19.096;2022-10-17T06:43:13;33.50;;;19.38;;
43184;SDS011;28803;52.308;19.096;2022-10-17T06:45:41;29.23;;;17.73;;
43184;SDS011;28803;52.308;19.096;2022-10-17T06:48:08;28.45;;;15.70;;
43184;SDS011;28803;52.308;19.096;2022-10-17T06:50:35;25.88;;;16.25;;
43184;SDS011;28803;52.308;19.096;2022-10-17T06:53:02;26.73;;;15.43;;
43184;SDS011;28803;52.308;19.096;2022-10-17T06:55:30;25.00;;;15.75;;
43184;SDS011;28803;52.308;19.096;2022-10-17T06:57:57;24.23;;;14.88;;
43184;SDS011;28803;52.308;19.096;2022-10-17T07:00:24;26.10;;;15.75;;
43184;SDS011;28803;52.308;19.096;2022-10-17T07:02:52;29.40;;;15.85;;
43184;SDS011;28803;52.308;19.096;2022-10-17T07:05:19;23.73;;;15.27;;
43184;SDS011;28803;52.308;19.096;2022-10-17T07:07:46;23.75;;;14.75;;
43184;SDS011;28803;52.308;19.096;2022-10-17T07:10:17;25.88;;;15.48;;
43184;SDS011;28803;52.308;19.096;2022-10-17T07:12:44;23.77;;;14.75;;
43184;SDS011;28803;52.308;19.096;2022-10-17T07:15:11;23.90;;;14.25;;
43184;SDS011;28803;52.308;19.096;2022-10-17T07:17:38;25.92;;;15.18;;
43184;SDS011;28803;52.308;19.096;2022-10-17T07:20:05;23.75;;;14.63;;
43184;SDS011;28803;52.308;19.096;2022-10-17T07:22:33;21.90;;;14.23;;
43184;SDS011;28803;52.308;19.096;2022-10-17T07:25:00;23.45;;;13.40;;
43184;SDS011;28803;52.308;19.096;2022-10-17T07:27:27;21.88;;;12.85;;
43184;SDS011;28803;52.308;19.096;2022-10-17T07:29:55;19.98;;;12.68;;
43184;SDS011;28803;52.308;19.096;2022-10-17T07:32:22;17.77;;;11.00;;
43184;SDS011;28803;52.308;19.096;2022-10-17T07:34:49;24.27;;;11.95;;
43184;SDS011;28803;52.308;19.096;2022-10-17T07:37:16;20.25;;;11.70;;
43184;SDS011;28803;52.308;19.096;2022-10-17T07:39:43;22.20;;;12.63;;
43184;SDS011;28803;52.308;19.096;2022-10-17T07:42:10;20.38;;;12.07;;
43184;SDS011;28803;52.308;19.096;2022-10-17T07:44:37;17.60;;;10.85;;
43184;SDS011;28803;52.308;19.096;2022-10-17T07:47:04;16.35;;;10.50;;
43184;SDS011;28803;52.308;19.096;2022-10-17T07:49:31;19.00;;;10.80;;
43184;SDS011;28803;52.308;19.096;2022-10-17T07:51:58;16.05;;;10.07;;
43184;SDS011;28803;52.308;19.096;2022-10-17T07:54:26;17.83;;;10.80;;
43184;SDS011;28803;52.308;19.096;2022-10-17T07:56:52;18.40;;;10.60;;
43184;SDS011;28803;52.308;19.096;2022-10-17T07:59:20;16.40;;;10.65;;
43184;SDS011;28803;52.308;19.096;2022-10-17T08:01:47;15.85;;;9.88;;
43184;SDS011;28803;52.308;19.096;2022-10-17T08:04:14;18.38;;;11.25;;
43184;SDS011;28803;52.308;19.096;2022-10-17T08:06:42;19.15;;;10.02;;
43184;SDS011;28803;52.308;19.096;2022-10-17T08:09:09;16.00;;;10.13;;
43184;SDS011;28803;52.308;19.096;2022-10-17T08:11:36;16.13;;;9.65;;
43184;SDS011;28803;52.308;19.096;2022-10-17T08:14:04;15.70;;;10.10;;
43184;SDS011;28803;52.308;19.096;2022-10-17T08:16:31;18.20;;;10.85;;
43184;SDS011;28803;52.308;19.096;2022-10-17T08:18:59;15.73;;;9.25;;
43184;SDS011;28803;52.308;19.096;2022-10-17T08:21:26;15.93;;;10.18;;
43184;SDS011;28803;52.308;19.096;2022-10-17T08:23:53;16.92;;;10.05;;
43184;SDS011;28803;52.308;19.096;2022-10-17T08:26:20;13.43;;;9.55;;
43184;SDS011;28803;52.308;19.096;2022-10-17T08:28:48;16.17;;;9.32;;
43184;SDS011;28803;52.308;19.096;2022-10-17T08:31:16;15.10;;;9.48;;
43184;SDS011;28803;52.308;19.096;2022-10-17T08:33:44;16.67;;;9.27;;
43184;SDS011;28803;52.308;19.096;2022-10-17T08:36:13;14.60;;;9.40;;
43184;SDS011;28803;52.308;19.096;2022-10-17T08:38:43;15.25;;;9.38;;
43184;SDS011;28803;52.308;19.096;2022-10-17T08:47:11;18.17;;;9.45;;
43184;SDS011;28803;52.308;19.096;2022-10-17T08:49:42;13.13;;;9.45;;
43184;SDS011;28803;52.308;19.096;2022-10-17T08:54:57;22.27;;;10.98;;
43184;SDS011;28803;52.308;19.096;2022-10-17T08:57:25;16.13;;;10.10;;
43184;SDS011;28803;52.308;19.096;2022-10-17T08:59:54;13.50;;;9.18;;
43184;SDS011;28803;52.308;19.096;2022-10-17T09:10:56;17.73;;;9.48;;
43184;SDS011;28803;52.308;19.096;2022-10-17T09:16:19;14.88;;;9.38;;
43184;SDS011;28803;52.308;19.096;2022-10-17T09:21:52;15.00;;;9.48;;
43184;SDS011;28803;52.308;19.096;2022-10-17T09:27:14;13.88;;;8.85;;
43184;SDS011;28803;52.308;19.096;2022-10-17T09:29:48;13.48;;;9.20;;
43184;SDS011;28803;52.308;19.096;2022-10-17T09:32:23;16.38;;;10.13;;
43184;SDS011;28803;52.308;19.096;2022-10-17T09:34:55;13.25;;;8.90;;
43184;SDS011;28803;52.308;19.096;2022-10-17T09:37:24;15.23;;;9.15;;
43184;SDS011;28803;52.308;19.096;2022-10-17T09:39:56;16.73;;;9.02;;
43184;SDS011;28803;52.308;19.096;2022-10-17T09:42:24;17.90;;;8.95;;
43184;SDS011;28803;52.308;19.096;2022-10-17T09:45:13;14.02;;;9.60;;
43184;SDS011;28803;52.308;19.096;2022-10-17T09:47:50;14.93;;;9.52;;
43184;SDS011;28803;52.308;19.096;2022-10-17T09:50:35;16.63;;;10.25;;
43184;SDS011;28803;52.308;19.096;2022-10-17T09:53:13;15.02;;;9.45;;
43184;SDS011;28803;52.308;19.096;2022-10-17T09:55:46;15.48;;;9.40;;
43184;SDS011;28803;52.308;19.096;2022-10-17T09:58:16;14.82;;;10.35;;
43184;SDS011;28803;52.308;19.096;2022-10-17T10:00:46;15.10;;;9.88;;
43184;SDS011;28803;52.308;19.096;2022-10-17T10:03:18;16.92;;;10.02;;
43184;SDS011;28803;52.308;19.096;2022-10-17T10:05:59;19.70;;;10.35;;
43184;SDS011;28803;52.308;19.096;2022-10-17T10:08:36;15.73;;;10.60;;
43184;SDS011;28803;52.308;19.096;2022-10-17T10:11:15;14.63;;;9.70;;
43184;SDS011;28803;52.308;19.096;2022-10-17T10:13:46;15.13;;;9.98;;
43184;SDS011;28803;52.308;19.096;2022-10-17T10:18:50;14.32;;;9.88;;
43184;SDS011;28803;52.308;19.096;2022-10-17T10:21:21;18.13;;;11.18;;
43184;SDS011;28803;52.308;19.096;2022-10-17T10:29:26;14.55;;;10.15;;
43184;SDS011;28803;52.308;19.096;2022-10-17T10:34:51;18.27;;;9.43;;
43184;SDS011;28803;52.308;19.096;2022-10-17T10:40:02;14.93;;;9.32;;
43184;SDS011;28803;52.308;19.096;2022-10-17T10:42:35;15.15;;;9.57;;
43184;SDS011;28803;52.308;19.096;2022-10-17T10:48:17;16.02;;;9.38;;
43184;SDS011;28803;52.308;19.096;2022-10-17T10:50:53;15.45;;;9.77;;
43184;SDS011;28803;52.308;19.096;2022-10-17T11:01:28;15.18;;;10.20;;
43184;SDS011;28803;52.308;19.096;2022-10-17T11:04:22;17.45;;;10.63;;
43184;SDS011;28803;52.308;19.096;2022-10-17T11:07:10;15.40;;;9.93;;
43184;SDS011;28803;52.308;19.096;2022-10-17T11:09:51;14.55;;;9.48;;
43184;SDS011;28803;52.308;19.096;2022-10-17T11:15:25;16.55;;;10.45;;
43184;SDS011;28803;52.308;19.096;2022-10-17T11:18:02;15.25;;;9.73;;
43184;SDS011;28803;52.308;19.096;2022-10-17T11:23:33;16.98;;;11.10;;
43184;SDS011;28803;52.308;19.096;2022-10-17T11:26:04;15.52;;;10.02;;
43184;SDS011;28803;52.308;19.096;2022-10-17T11:28:36;16.85;;;10.10;;
43184;SDS011;28803;52.308;19.096;2022-10-17T11:31:11;13.73;;;9.05;;
43184;SDS011;28803;52.308;19.096;2022-10-17T11:33:44;14.95;;;9.77;;
43184;SDS011;28803;52.308;19.096;2022-10-17T11:36:15;14.98;;;10.23;;
43184;SDS011;28803;52.308;19.096;2022-10-17T11:41:26;15.13;;;9.68;;
43184;SDS011;28803;52.308;19.096;2022-10-17T11:46:44;13.13;;;8.93;;
43184;SDS011;28803;52.308;19.096;2022-10-17T11:49:19;15.97;;;9.73;;
43184;SDS011;28803;52.308;19.096;2022-10-17T11:51:51;13.55;;;8.35;;
43184;SDS011;28803;52.308;19.096;2022-10-17T11:54:37;14.77;;;9.73;;
43184;SDS011;28803;52.308;19.096;2022-10-17T12:00:22;16.83;;;9.00;;
43184;SDS011;28803;52.308;19.096;2022-10-17T12:08:52;12.43;;;8.60;;
43184;SDS011;28803;52.308;19.096;2022-10-17T12:14:35;13.40;;;9.02;;
43184;SDS011;28803;52.308;19.096;2022-10-17T12:17:04;16.35;;;8.65;;
43184;SDS011;28803;52.308;19.096;2022-10-17T12:19:46;11.35;;;7.95;;
43184;SDS011;28803;52.308;19.096;2022-10-17T12:27:37;11.75;;;7.55;;
43184;SDS011;28803;52.308;19.096;2022-10-17T12:35:38;11.48;;;8.93;;
43184;SDS011;28803;52.308;19.096;2022-10-17T12:48:57;13.50;;;8.80;;
43184;SDS011;28803;52.308;19.096;2022-10-17T12:53:58;18.25;;;9.07;;
43184;SDS011;28803;52.308;19.096;2022-10-17T12:56:35;12.25;;;7.68;;
43184;SDS011;28803;52.308;19.096;2022-10-17T12:59:10;11.00;;;7.57;;
43184;SDS011;28803;52.308;19.096;2022-10-17T13:01:44;11.95;;;7.85;;
43184;SDS011;28803;52.308;19.096;2022-10-17T13:04:14;11.35;;;8.15;;
43184;SDS011;28803;52.308;19.096;2022-10-17T13:06:50;12.48;;;8.02;;
43184;SDS011;28803;52.308;19.096;2022-10-17T13:09:24;12.48;;;8.32;;
43184;SDS011;28803;52.308;19.096;2022-10-17T13:11:56;12.63;;;7.78;;
43184;SDS011;28803;52.308;19.096;2022-10-17T13:14:27;11.40;;;8.68;;
43184;SDS011;28803;52.308;19.096;2022-10-17T13:17:05;11.88;;;8.32;;
43184;SDS011;28803;52.308;19.096;2022-10-17T13:19:41;11.90;;;7.75;;
43184;SDS011;28803;52.308;19.096;2022-10-17T13:22:12;13.35;;;7.82;;
43184;SDS011;28803;52.308;19.096;2022-10-17T13:24:45;14.43;;;8.90;;
43184;SDS011;28803;52.308;19.096;2022-10-17T13:27:29;11.35;;;7.95;;
43184;SDS011;28803;52.308;19.096;2022-10-17T13:29:58;14.70;;;8.15;;
43184;SDS011;28803;52.308;19.096;2022-10-17T13:32:34;12.07;;;8.00;;
43184;SDS011;28803;52.308;19.096;2022-10-17T13:35:11;15.18;;;8.88;;
43184;SDS011;28803;52.308;19.096;2022-10-17T13:37:41;12.27;;;8.30;;
43184;SDS011;28803;52.308;19.096;2022-10-17T13:40:17;12.88;;;8.93;;
43184;SDS011;28803;52.308;19.096;2022-10-17T13:43:08;12.85;;;8.23;;
43184;SDS011;28803;52.308;19.096;2022-10-17T13:45:51;13.63;;;7.82;;
43184;SDS011;28803;52.308;19.096;2022-10-17T13:48:25;15.30;;;8.82;;
43184;SDS011;28803;52.308;19.096;2022-10-17T13:50:57;14.38;;;8.55;;
43184;SDS011;28803;52.308;19.096;2022-10-17T13:53:32;11.57;;;7.30;;
43184;SDS011;28803;52.308;19.096;2022-10-17T13:56:05;13.05;;;8.70;;
43184;SDS011;28803;52.308;19.096;2022-10-17T13:58:56;11.32;;;8.32;;
43184;SDS011;28803;52.308;19.096;2022-10-17T14:01:26;14.23;;;9.02;;
43184;SDS011;28803;52.308;19.096;2022-10-17T14:03:54;12.88;;;8.75;;
43184;SDS011;28803;52.308;19.096;2022-10-17T14:06:39;14.43;;;9.27;;
43184;SDS011;28803;52.308;19.096;2022-10-17T14:09:22;14.02;;;8.48;;
43184;SDS011;28803;52.308;19.096;2022-10-17T14:12:10;14.45;;;9.00;;
43184;SDS011;28803;52.308;19.096;2022-10-17T14:14:45;13.27;;;8.57;;
43184;SDS011;28803;52.308;19.096;2022-10-17T14:17:36;13.85;;;8.10;;
43184;SDS011;28803;52.308;19.096;2022-10-17T14:20:04;17.77;;;8.80;;
43184;SDS011;28803;52.308;19.096;2022-10-17T14:22:57;13.77;;;8.50;;
43184;SDS011;28803;52.308;19.096;2022-10-17T14:25:44;13.60;;;7.70;;
43184;SDS011;28803;52.308;19.096;2022-10-17T14:28:13;12.38;;;8.00;;
43184;SDS011;28803;52.308;19.096;2022-10-17T14:30:42;13.38;;;9.10;;
43184;SDS011;28803;52.308;19.096;2022-10-17T14:33:30;13.93;;;8.38;;
43184;SDS011;28803;52.308;19.096;2022-10-17T14:35:58;13.90;;;7.70;;
43184;SDS011;28803;52.308;19.096;2022-10-17T14:38:27;16.25;;;9.55;;
43184;SDS011;28803;52.308;19.096;2022-10-17T14:40:59;12.77;;;8.15;;
43184;SDS011;28803;52.308;19.096;2022-10-17T14:43:57;12.13;;;8.70;;
43184;SDS011;28803;52.308;19.096;2022-10-17T14:46:26;15.40;;;8.52;;
43184;SDS011;28803;52.308;19.096;2022-10-17T14:48:55;13.38;;;8.40;;
43184;SDS011;28803;52.308;19.096;2022-10-17T14:54:45;13.80;;;7.72;;
43184;SDS011;28803;52.308;19.096;2022-10-17T14:59:45;13.57;;;8.55;;
43184;SDS011;28803;52.308;19.096;2022-10-17T15:02:24;12.70;;;8.93;;
43184;SDS011;28803;52.308;19.096;2022-10-17T15:04:53;12.60;;;7.53;;
43184;SDS011;28803;52.308;19.096;2022-10-17T15:07:20;17.02;;;8.43;;
43184;SDS011;28803;52.308;19.096;2022-10-17T15:09:49;13.23;;;8.27;;
43184;SDS011;28803;52.308;19.096;2022-10-17T15:12:19;10.95;;;7.55;;
43184;SDS011;28803;52.308;19.096;2022-10-17T15:14:48;11.65;;;7.75;;
43184;SDS011;28803;52.308;19.096;2022-10-17T15:17:17;10.57;;;7.35;;
43184;SDS011;28803;52.308;19.096;2022-10-17T15:19:55;11.88;;;7.70;;
43184;SDS011;28803;52.308;19.096;2022-10-17T15:22:22;16.05;;;8.80;;
43184;SDS011;28803;52.308;19.096;2022-10-17T15:24:50;16.77;;;7.90;;
43184;SDS011;28803;52.308;19.096;2022-10-17T15:27:18;12.90;;;7.95;;
43184;SDS011;28803;52.308;19.096;2022-10-17T15:29:47;12.45;;;8.10;;
43184;SDS011;28803;52.308;19.096;2022-10-17T15:32:15;14.40;;;8.27;;
43184;SDS011;28803;52.308;19.096;2022-10-17T15:34:43;14.00;;;8.88;;
43184;SDS011;28803;52.308;19.096;2022-10-17T15:37:14;13.57;;;8.40;;
43184;SDS011;28803;52.308;19.096;2022-10-17T15:39:47;11.63;;;7.40;;
43184;SDS011;28803;52.308;19.096;2022-10-17T15:42:22;14.20;;;7.85;;
43184;SDS011;28803;52.308;19.096;2022-10-17T15:44:53;211.70;;;91.00;;
43184;SDS011;28803;52.308;19.096;2022-10-17T15:47:25;270.63;;;126.97;;
43184;SDS011;28803;52.308;19.096;2022-10-17T15:50:01;261.25;;;145.20;;
43184;SDS011;28803;52.308;19.096;2022-10-17T15:52:28;103.90;;;53.47;;
43184;SDS011;28803;52.308;19.096;2022-10-17T15:54:56;108.47;;;60.92;;
43184;SDS011;28803;52.308;19.096;2022-10-17T15:57:29;89.57;;;51.72;;
43184;SDS011;28803;52.308;19.096;2022-10-17T16:00:00;128.23;;;83.72;;
43184;SDS011;28803;52.308;19.096;2022-10-17T16:02:27;183.30;;;144.98;;
43184;SDS011;28803;52.308;19.096;2022-10-17T16:04:54;96.38;;;73.00;;
43184;SDS011;28803;52.308;19.096;2022-10-17T16:07:22;72.82;;;64.78;;
43184;SDS011;28803;52.308;19.096;2022-10-17T16:09:50;25.50;;;21.10;;
43184;SDS011;28803;52.308;19.096;2022-10-17T16:12:25;15.20;;;11.15;;
43184;SDS011;28803;52.308;19.096;2022-10-17T16:14:54;92.10;;;50.50;;
43184;SDS011;28803;52.308;19.096;2022-10-17T16:17:22;314.63;;;181.93;;
43184;SDS011;28803;52.308;19.096;2022-10-17T16:19:49;120.38;;;84.57;;
43184;SDS011;28803;52.308;19.096;2022-10-17T16:22:18;141.25;;;110.47;;
43184;SDS011;28803;52.308;19.096;2022-10-17T16:24:58;50.03;;;41.03;;
43184;SDS011;28803;52.308;19.096;2022-10-17T16:27:33;55.45;;;45.75;;
43184;SDS011;28803;52.308;19.096;2022-10-17T16:30:03;34.05;;;25.35;;
43184;SDS011;28803;52.308;19.096;2022-10-17T16:32:32;19.27;;;13.02;;
43184;SDS011;28803;52.308;19.096;2022-10-17T16:34:59;23.08;;;14.02;;
43184;SDS011;28803;52.308;19.096;2022-10-17T16:37:26;25.17;;;19.40;;
43184;SDS011;28803;52.308;19.096;2022-10-17T16:39:54;32.80;;;21.52;;
43184;SDS011;28803;52.308;19.096;2022-10-17T16:42:21;21.05;;;13.80;;
43184;SDS011;28803;52.308;19.096;2022-10-17T16:44:48;23.27;;;14.23;;
43184;SDS011;28803;52.308;19.096;2022-10-17T16:47:17;24.35;;;14.40;;
43184;SDS011;28803;52.308;19.096;2022-10-17T16:49:44;18.92;;;11.23;;
43184;SDS011;28803;52.308;19.096;2022-10-17T16:52:12;16.23;;;11.52;;
43184;SDS011;28803;52.308;19.096;2022-10-17T16:54:39;21.38;;;13.30;;
43184;SDS011;28803;52.308;19.096;2022-10-17T16:57:06;34.80;;;24.02;;
43184;SDS011;28803;52.308;19.096;2022-10-17T16:59:34;48.30;;;36.78;;
43184;SDS011;28803;52.308;19.096;2022-10-17T17:02:01;50.17;;;35.78;;
43184;SDS011;28803;52.308;19.096;2022-10-17T17:04:31;23.90;;;16.17;;